createdAt,value
2022-09-18T06:15:05.251Z,67.50
2022-09-18T06:16:05.230Z,73.13
2022-09-18T06:17:05.121Z,73.13
2022-09-18T06:18:05.133Z,73.13
2022-09-18T06:19:05.129Z,73.13
2022-09-18T06:20:05.131Z,78.75
2022-09-18T06:21:05.138Z,73.13
2022-09-18T06:22:05.144Z,73.13
2022-09-18T06:23:05.155Z,73.13
2022-09-18T06:24:05.157Z,78.75
2022-09-18T06:25:05.159Z,78.75
2022-09-18T06:26:05.165Z,78.75
2022-09-18T06:27:05.171Z,78.75
2022-09-18T06:28:05.169Z,78.75
2022-09-18T06:29:05.183Z,78.75
2022-09-18T06:30:05.180Z,78.75
2022-09-18T06:31:05.395Z,78.75
2022-09-18T06:32:05.190Z,78.75
2022-09-18T06:33:05.204Z,78.75
2022-09-18T06:34:05.200Z,78.75
2022-09-18T06:35:05.212Z,84.38
2022-09-18T06:36:05.210Z,84.38
2022-09-18T06:37:05.215Z,84.38
2022-09-18T06:38:05.226Z,84.38
2022-09-18T06:39:05.224Z,84.38
2022-09-18T06:40:05.273Z,84.38
2022-09-18T06:41:05.236Z,84.38
2022-09-18T06:42:05.249Z,84.38
2022-09-18T06:43:05.252Z,84.38
2022-09-18T06:44:05.257Z,95.63
2022-09-18T06:45:05.257Z,90.00
2022-09-18T06:46:05.270Z,90.00
2022-09-18T06:47:05.419Z,90.00
2022-09-18T06:49:02.851Z,95.63
2022-09-18T06:50:02.866Z,95.63
2022-09-18T06:51:02.865Z,90.00
2022-09-18T06:52:02.871Z,95.63
2022-09-18T06:53:02.865Z,84.38
2022-09-18T06:54:03.125Z,90.00
2022-09-18T06:55:02.880Z,90.00
2022-09-18T06:56:02.891Z,101.25
2022-09-18T06:57:02.887Z,101.25
2022-09-18T06:58:02.894Z,101.25
2022-09-18T06:59:02.898Z,106.88
2022-09-18T07:00:04.959Z,106.88
2022-09-18T07:01:02.952Z,106.88
2022-09-18T07:02:03.006Z,106.88
2022-09-18T08:46:03.314Z,1462.50
2022-09-18T08:47:03.254Z,1389.38
2022-09-18T08:48:03.209Z,466.88
2022-09-18T08:49:03.227Z,810.00
2022-09-18T08:50:03.248Z,264.38
2022-09-18T08:51:03.254Z,354.38
2022-09-18T08:52:03.268Z,1389.38
2022-09-18T08:53:03.278Z,1468.13
2022-09-18T08:54:03.327Z,601.88
2022-09-18T08:55:03.309Z,354.38
2022-09-18T08:56:03.316Z,405.00
2022-09-18T08:57:03.326Z,450.00
2022-09-18T08:58:03.336Z,590.63
2022-09-18T08:59:03.350Z,1158.75
2022-09-18T09:00:03.362Z,1125.00
2022-09-18T09:01:03.479Z,1642.50
2022-09-18T09:02:03.607Z,1428.75
2022-09-18T09:03:03.408Z,961.88
2022-09-18T09:04:03.417Z,1473.75
2022-09-18T09:05:03.437Z,241.88
2022-09-18T09:06:03.451Z,1147.50
2022-09-18T09:07:03.458Z,1513.13
2022-09-18T09:08:03.471Z,1546.88
2022-09-18T09:09:03.526Z,1524.38
2022-09-18T09:10:03.505Z,1563.75
2022-09-18T09:11:03.514Z,1355.63
2022-09-18T09:12:03.537Z,1535.63
2022-09-18T09:13:03.549Z,1518.75
2022-09-18T09:17:09.640Z,1665.00
2022-09-18T09:18:09.538Z,1771.88
2022-09-18T09:19:09.552Z,1861.88
2022-09-18T09:20:09.569Z,624.38
2022-09-18T09:21:11.789Z,1906.88
2022-09-18T09:22:09.642Z,399.38
2022-09-18T09:23:09.606Z,624.38
2022-09-18T09:24:09.634Z,382.50
2022-09-18T09:25:09.637Z,348.75
2022-09-18T09:26:09.660Z,1788.75
2022-09-18T09:27:09.669Z,1743.75
2022-09-18T09:28:12.289Z,1743.75
2022-09-18T09:29:09.707Z,1783.13
2022-09-18T09:30:09.717Z,483.75
2022-09-18T09:31:09.833Z,1811.25
2022-09-18T09:32:09.747Z,1771.88
2022-09-18T09:33:09.882Z,1805.63
2022-09-18T09:34:09.776Z,1940.63
2022-09-18T09:35:09.793Z,2053.13
2022-09-18T09:36:09.814Z,2109.38
2022-09-18T09:37:09.830Z,1006.88
2022-09-18T09:38:09.839Z,421.88
2022-09-18T09:39:09.857Z,405.00
2022-09-18T09:40:09.969Z,433.13
2022-09-18T09:41:09.895Z,450.00
2022-09-18T09:42:09.902Z,478.13
2022-09-18T09:43:09.931Z,433.13
2022-09-18T09:44:09.943Z,607.50
2022-09-18T09:45:09.956Z,1215.00
2022-09-18T09:46:10.036Z,1816.88
2022-09-18T09:47:10.026Z,2036.25
2022-09-18T09:48:09.994Z,500.63
2022-09-18T09:49:10.130Z,309.38
2022-09-18T09:50:10.039Z,174.38
2022-09-18T09:51:10.044Z,196.88
2022-09-18T09:52:10.058Z,303.75
2022-09-18T09:53:10.070Z,292.50
2022-09-18T10:01:45.981Z,2193.75
2022-09-18T10:02:45.933Z,793.13
2022-09-18T10:03:45.941Z,635.63
2022-09-18T10:04:46.068Z,596.25
2022-09-18T10:05:49.276Z,545.63
2022-09-18T10:06:45.981Z,669.38
2022-09-18T10:07:46.004Z,2131.88
2022-09-18T10:08:46.010Z,568.13
2022-09-18T10:09:46.023Z,708.75
2022-09-18T10:10:46.032Z,579.38
2022-09-18T10:11:46.041Z,1350.00
2022-09-18T10:12:46.055Z,1333.13
2022-09-18T10:13:46.067Z,1929.38
2022-09-18T10:14:46.080Z,450.00
2022-09-18T10:15:46.102Z,264.38
2022-09-18T10:16:46.112Z,191.25
2022-09-18T10:17:46.120Z,168.75
2022-09-18T10:18:46.136Z,180.00
2022-09-18T10:19:46.145Z,185.63
2022-09-18T10:20:46.283Z,241.88
2022-09-18T10:21:46.177Z,298.13
2022-09-18T10:22:46.192Z,286.88
2022-09-18T10:23:46.196Z,281.25
2022-09-18T10:24:46.207Z,264.38
2022-09-18T10:25:46.221Z,298.13
2022-09-18T10:37:48.804Z,646.88
2022-09-18T10:38:48.693Z,641.25
2022-09-18T10:39:48.719Z,691.88
2022-09-18T10:40:48.718Z,641.25
2022-09-18T10:41:48.734Z,534.38
2022-09-18T10:43:41.319Z,466.88
2022-09-18T10:50:34.604Z,1333.13
2022-09-18T10:51:33.839Z,1501.88
2022-09-18T10:52:33.854Z,1816.88
2022-09-18T10:53:33.997Z,2491.88
2022-09-18T10:54:36.500Z,2351.25
2022-09-18T10:55:33.899Z,2328.75
2022-09-18T10:56:33.912Z,2300.63
2022-09-18T10:57:33.921Z,2295.00
2022-09-18T10:58:33.936Z,2295.00
2022-09-18T10:59:33.948Z,2289.38
2022-09-18T11:00:34.000Z,2278.13
2022-09-18T11:01:34.014Z,2283.75
2022-09-18T11:02:34.056Z,2311.88
2022-09-18T11:03:34.009Z,1738.13
2022-09-18T11:06:34.199Z,1850.63
2022-09-18T11:11:43.525Z,663.75
2022-09-18T11:12:43.421Z,2846.25
2022-09-18T11:13:43.448Z,871.88
2022-09-18T11:14:43.453Z,984.38
2022-09-18T11:15:43.471Z,658.13
2022-09-18T11:16:43.540Z,635.63
2022-09-18T11:19:53.697Z,585.00
2022-09-18T11:22:01.314Z,1805.63
2022-09-18T11:23:01.337Z,1726.88
2022-09-18T11:24:01.471Z,2328.75
2022-09-18T11:25:01.362Z,2300.63
2022-09-18T11:26:01.377Z,2295.00
2022-09-18T11:27:01.726Z,2295.00
2022-09-18T11:28:01.413Z,2469.38
2022-09-18T11:29:01.421Z,2379.38
2022-09-18T11:40:58.302Z,1822.50
2022-09-18T11:41:58.317Z,2514.38
2022-09-18T11:42:58.478Z,1670.63
2022-09-18T11:43:58.346Z,2514.38
2022-09-18T11:44:58.367Z,2497.50
2022-09-18T11:45:58.394Z,438.75
2022-09-18T11:46:58.482Z,646.88
2022-09-18T11:47:58.430Z,455.63
2022-09-18T11:49:02.488Z,2503.13
2022-09-18T11:49:58.460Z,478.13
2022-09-18T11:50:58.488Z,2407.50
2022-09-18T11:51:58.506Z,635.63
2022-09-18T11:52:58.524Z,236.25
2022-09-18T11:53:58.539Z,174.38
2022-09-18T11:54:58.560Z,208.13
2022-09-18T11:55:58.575Z,326.25
2022-09-18T11:56:58.587Z,450.00
2022-09-18T11:57:58.601Z,489.38
2022-09-18T11:58:58.740Z,427.50
2022-09-18T11:59:58.642Z,405.00
2022-09-18T12:01:02.964Z,388.13
2022-09-18T12:01:58.705Z,427.50
2022-09-18T12:10:22.672Z,360.00
2022-09-18T12:11:22.686Z,911.25
2022-09-18T12:12:22.706Z,1794.38
2022-09-18T12:13:22.713Z,765.00
2022-09-18T12:14:22.849Z,877.50
2022-09-18T12:15:22.739Z,1805.63
2022-09-18T12:16:22.809Z,675.00
2022-09-18T12:17:22.763Z,810.00
2022-09-18T12:18:22.787Z,815.63
2022-09-18T12:19:22.798Z,973.13
2022-09-18T12:20:22.805Z,1462.50
2022-09-18T12:21:22.817Z,596.25
2022-09-18T12:22:22.838Z,748.13
2022-09-18T12:23:22.843Z,568.13
2022-09-18T12:24:22.865Z,545.63
2022-09-18T12:25:22.874Z,1119.38
2022-09-18T12:26:22.890Z,545.63
2022-09-18T12:27:27.074Z,382.50
2022-09-18T12:30:00.691Z,270.00
2022-09-18T12:48:03.136Z,714.38
2022-09-18T12:54:59.242Z,410.63
2022-09-18T12:56:01.866Z,371.25
2022-09-18T13:03:31.448Z,78.75
2022-09-18T13:04:28.654Z,95.63
2022-09-18T13:05:28.661Z,196.88
2022-09-18T13:06:28.670Z,264.38
2022-09-18T13:07:28.679Z,247.50
2022-09-18T13:08:28.695Z,225.00
2022-09-18T13:09:28.699Z,191.25
2022-09-18T13:10:28.715Z,163.13
2022-09-18T13:11:28.727Z,123.75
2022-09-18T13:12:28.743Z,101.25
2022-09-18T13:13:28.747Z,101.25
2022-09-18T13:14:28.747Z,84.38
2022-09-18T13:15:28.757Z,95.63
2022-09-18T13:16:29.543Z,90.00
2022-09-18T13:17:29.518Z,95.63
2022-09-18T13:18:29.522Z,95.63
2022-09-18T13:19:29.657Z,90.00
2022-09-18T13:20:29.543Z,90.00
2022-09-18T13:21:29.543Z,90.00
2022-09-18T13:22:29.551Z,90.00
2022-09-18T13:23:29.568Z,95.63
2022-09-18T13:24:29.568Z,106.88
2022-09-18T13:25:29.579Z,129.38
2022-09-18T13:26:29.586Z,140.63
2022-09-18T14:01:35.265Z,225.00
2022-09-18T14:02:35.102Z,270.00
2022-09-18T14:03:35.115Z,303.75
